createdAt,value
2023-08-31T00:01:43.894Z,0.77
2023-08-31T00:04:16.135Z,0.68
2023-08-31T00:06:46.313Z,0.80
2023-08-31T00:09:15.093Z,0.93
2023-08-31T00:11:42.131Z,0.90
2023-08-31T00:14:09.181Z,0.88
2023-08-31T00:16:36.158Z,1.20
2023-08-31T00:19:04.982Z,0.88
2023-08-31T00:21:31.983Z,0.90
2023-08-31T00:23:59.150Z,1.10
2023-08-31T00:26:27.477Z,1.27
2023-08-31T00:28:58.322Z,0.98
2023-08-31T00:31:25.717Z,1.13
2023-08-31T00:33:52.808Z,1.48
2023-08-31T00:36:19.909Z,1.33
2023-08-31T00:38:47.844Z,1.08
2023-08-31T00:41:14.848Z,1.02
2023-08-31T00:43:41.945Z,1.20
2023-08-31T00:46:09.012Z,1.20
2023-08-31T00:48:36.061Z,1.10
2023-08-31T00:51:03.864Z,1.40
2023-08-31T00:53:31.566Z,1.05
2023-08-31T00:55:59.818Z,1.10
2023-08-31T00:58:27.498Z,1.20
2023-08-31T01:01:11.667Z,1.20
2023-08-31T01:03:54.044Z,1.45
2023-08-31T01:06:50.500Z,1.30
2023-08-31T01:09:40.862Z,1.30
2023-08-31T01:12:22.262Z,1.13
2023-08-31T01:15:00.611Z,1.38
2023-08-31T01:17:31.077Z,1.40
2023-08-31T01:20:00.681Z,1.30
2023-08-31T01:22:34.166Z,1.60
2023-08-31T01:25:05.493Z,1.40
2023-08-31T01:27:33.391Z,1.50
2023-08-31T01:30:00.697Z,1.50
2023-08-31T01:32:28.088Z,1.70
2023-08-31T01:34:58.650Z,1.80
2023-08-31T01:37:38.351Z,1.73
2023-08-31T01:40:33.400Z,1.95
2023-08-31T01:43:02.946Z,1.80
2023-08-31T01:45:31.858Z,2.40
2023-08-31T01:47:58.980Z,2.40
2023-08-31T01:50:25.930Z,2.15
2023-08-31T01:52:54.568Z,2.70
2023-08-31T01:55:22.776Z,2.70
2023-08-31T01:57:49.914Z,3.10
2023-08-31T02:00:21.334Z,2.65
2023-08-31T02:02:48.810Z,2.70
2023-08-31T02:05:16.158Z,2.90
2023-08-31T02:07:43.245Z,3.08
2023-08-31T02:10:10.588Z,2.75
2023-08-31T02:12:38.933Z,3.42
2023-08-31T02:15:07.625Z,3.40
2023-08-31T02:17:38.382Z,3.15
2023-08-31T02:20:07.764Z,3.22
2023-08-31T02:22:35.938Z,2.80
2023-08-31T02:25:03.468Z,3.63
2023-08-31T02:27:30.482Z,3.03
2023-08-31T02:29:57.541Z,3.25
2023-08-31T02:32:24.498Z,3.60
2023-08-31T02:34:51.901Z,3.20
2023-08-31T02:37:20.204Z,3.60
2023-08-31T02:39:47.303Z,3.33
2023-08-31T02:42:15.735Z,3.17
2023-08-31T02:44:42.751Z,2.97
2023-08-31T02:47:09.736Z,2.88
2023-08-31T02:49:36.799Z,2.88
2023-08-31T02:52:05.021Z,3.47
2023-08-31T02:54:32.150Z,2.92
2023-08-31T02:56:59.095Z,3.17
2023-08-31T02:59:26.308Z,3.42
2023-08-31T03:01:54.667Z,2.95
2023-08-31T03:04:21.644Z,3.45
2023-08-31T03:06:51.803Z,3.22
2023-08-31T03:09:18.817Z,3.33
2023-08-31T03:11:45.803Z,2.90
2023-08-31T03:14:12.933Z,3.10
2023-08-31T03:16:40.035Z,3.70
2023-08-31T03:19:07.297Z,3.75
2023-08-31T03:21:34.398Z,3.00
2023-08-31T03:24:02.999Z,3.17
2023-08-31T03:26:30.223Z,3.63
2023-08-31T03:28:57.570Z,3.13
2023-08-31T03:31:25.137Z,3.10
2023-08-31T03:33:52.277Z,2.78
2023-08-31T03:36:19.271Z,3.25
2023-08-31T03:38:46.192Z,2.88
2023-08-31T03:41:14.013Z,3.17
2023-08-31T03:43:41.023Z,2.65
2023-08-31T03:46:08.105Z,3.10
2023-08-31T03:48:36.222Z,3.10
2023-08-31T03:51:03.171Z,2.78
2023-08-31T03:53:30.159Z,3.65
2023-08-31T03:56:00.923Z,2.92
2023-08-31T03:58:28.012Z,2.70
2023-08-31T04:00:55.842Z,2.88
2023-08-31T04:03:23.632Z,3.00
2023-08-31T04:05:55.919Z,3.35
2023-08-31T04:08:22.875Z,2.53
2023-08-31T04:10:49.888Z,2.70
2023-08-31T04:13:16.897Z,2.70
2023-08-31T04:15:43.855Z,2.88
2023-08-31T04:18:10.892Z,2.72
2023-08-31T04:20:37.821Z,2.97
2023-08-31T04:23:04.899Z,3.00
2023-08-31T04:25:32.743Z,2.88
2023-08-31T04:27:59.902Z,3.05
2023-08-31T04:30:27.874Z,2.70
2023-08-31T04:32:55.368Z,2.85
2023-08-31T04:35:23.544Z,2.65
2023-08-31T04:37:50.547Z,2.58
2023-08-31T04:40:17.546Z,2.97
2023-08-31T04:42:45.266Z,2.45
2023-08-31T04:45:13.344Z,2.90
2023-08-31T04:47:40.370Z,2.63
2023-08-31T04:50:08.758Z,3.22
2023-08-31T04:52:36.035Z,2.88
2023-08-31T04:55:10.419Z,2.70
2023-08-31T04:57:37.758Z,2.83
2023-08-31T05:00:06.054Z,3.08
2023-08-31T05:02:37.848Z,2.97
2023-08-31T05:05:06.276Z,3.05
2023-08-31T05:07:33.350Z,2.28
2023-08-31T05:10:00.287Z,2.40
2023-08-31T05:12:27.288Z,2.63
2023-08-31T05:14:54.370Z,2.40
2023-08-31T05:17:22.478Z,2.72
2023-08-31T05:19:49.665Z,2.70
2023-08-31T05:22:16.548Z,2.22
2023-08-31T05:24:43.484Z,2.47
2023-08-31T05:27:10.479Z,2.28
2023-08-31T05:29:37.469Z,2.60
2023-08-31T05:32:04.801Z,2.30
2023-08-31T05:34:36.032Z,2.30
2023-08-31T05:37:05.929Z,2.77
2023-08-31T05:39:34.248Z,2.35
2023-08-31T05:42:03.441Z,2.75
2023-08-31T05:44:30.866Z,2.60
2023-08-31T05:46:57.903Z,2.45
2023-08-31T05:49:24.818Z,2.42
2023-08-31T05:51:53.010Z,2.95
2023-08-31T05:54:20.150Z,2.67
2023-08-31T05:56:47.940Z,2.25
2023-08-31T05:59:15.011Z,2.67
2023-08-31T06:01:44.682Z,2.80
2023-08-31T06:04:11.952Z,2.00
2023-08-31T06:06:39.251Z,2.55
2023-08-31T06:09:08.090Z,2.40
2023-08-31T06:11:36.186Z,2.35
2023-08-31T06:14:05.650Z,2.97
2023-08-31T06:16:35.758Z,2.40
2023-08-31T06:19:03.861Z,2.60
2023-08-31T06:21:30.744Z,2.20
2023-08-31T06:23:57.723Z,2.38
2023-08-31T06:26:24.718Z,2.85
2023-08-31T06:28:52.214Z,2.72
2023-08-31T06:31:21.098Z,2.20
2023-08-31T06:33:48.090Z,2.38
2023-08-31T06:36:15.028Z,2.67
2023-08-31T06:38:42.073Z,2.47
2023-08-31T06:41:10.392Z,2.33
2023-08-31T06:43:37.310Z,2.95
2023-08-31T06:46:21.806Z,2.63
2023-08-31T06:48:50.609Z,3.05
2023-08-31T06:51:17.763Z,2.67
2023-08-31T06:53:45.200Z,3.40
2023-08-31T06:56:12.221Z,2.58
2023-08-31T06:58:39.278Z,2.53
2023-08-31T07:01:10.076Z,2.53
2023-08-31T07:03:37.387Z,2.63
2023-08-31T07:06:04.465Z,2.67
2023-08-31T07:08:31.920Z,3.03
2023-08-31T07:10:58.855Z,3.45
2023-08-31T07:13:25.816Z,3.08
2023-08-31T07:15:52.990Z,3.33
2023-08-31T07:18:20.046Z,3.17
2023-08-31T07:20:47.822Z,3.58
2023-08-31T07:23:15.290Z,3.35
2023-08-31T07:25:43.387Z,2.95
2023-08-31T07:28:13.013Z,3.60
2023-08-31T07:30:40.186Z,4.13
2023-08-31T07:33:24.295Z,3.83
2023-08-31T07:35:55.845Z,3.47
2023-08-31T07:38:22.753Z,3.97
2023-08-31T07:40:50.228Z,4.22
2023-08-31T07:43:17.298Z,3.60
2023-08-31T07:45:44.245Z,3.72
2023-08-31T07:48:11.625Z,3.78
2023-08-31T07:50:42.821Z,3.65
2023-08-31T07:53:10.300Z,4.28
2023-08-31T07:55:37.540Z,3.58
2023-08-31T07:58:04.684Z,3.60
2023-08-31T08:00:31.781Z,3.65
2023-08-31T08:02:59.014Z,3.78
2023-08-31T08:05:28.214Z,4.53
2023-08-31T08:07:55.156Z,4.80
2023-08-31T08:10:22.120Z,3.05
2023-08-31T08:12:49.078Z,4.38
2023-08-31T08:15:16.059Z,3.58
2023-08-31T08:17:43.830Z,3.40
2023-08-31T08:20:11.470Z,3.88
2023-08-31T08:23:29.686Z,3.65
2023-08-31T08:25:56.708Z,3.33
2023-08-31T08:28:23.657Z,3.95
2023-08-31T08:30:51.385Z,3.10
2023-08-31T08:33:19.238Z,4.07
2023-08-31T08:35:46.234Z,4.35
2023-08-31T08:38:13.348Z,3.90
2023-08-31T08:40:42.454Z,4.07
2023-08-31T08:43:09.859Z,3.88
2023-08-31T08:45:39.807Z,4.03
2023-08-31T08:48:08.632Z,3.90
2023-08-31T08:50:37.530Z,3.58
2023-08-31T08:53:05.494Z,3.35
2023-08-31T08:55:33.333Z,3.83
2023-08-31T08:58:02.453Z,3.33
2023-08-31T09:00:30.337Z,3.45
2023-08-31T09:02:57.708Z,3.53
2023-08-31T09:05:25.180Z,3.10
2023-08-31T09:08:14.968Z,3.75
2023-08-31T09:10:43.598Z,3.60
2023-08-31T09:13:12.691Z,3.53
2023-08-31T09:15:44.956Z,3.20
2023-08-31T09:18:34.104Z,3.17
2023-08-31T09:21:01.996Z,3.28
2023-08-31T09:23:35.491Z,3.47
2023-08-31T09:26:02.473Z,3.83
2023-08-31T09:28:30.469Z,3.00
2023-08-31T09:31:09.395Z,3.33
2023-08-31T09:33:37.879Z,3.60
2023-08-31T09:36:08.477Z,2.90
2023-08-31T09:38:43.784Z,3.20
2023-08-31T09:41:10.825Z,3.03
2023-08-31T09:43:37.788Z,3.92
2023-08-31T09:46:08.024Z,3.15
2023-08-31T09:48:38.916Z,3.78
2023-08-31T09:51:06.183Z,3.00
2023-08-31T09:53:35.696Z,3.58
2023-08-31T09:56:04.008Z,3.20
2023-08-31T09:58:32.344Z,2.78
2023-08-31T10:01:00.852Z,2.83
2023-08-31T10:03:28.542Z,2.75
2023-08-31T10:05:57.165Z,3.15
2023-08-31T10:08:32.343Z,3.22
2023-08-31T10:11:04.738Z,2.75
2023-08-31T10:13:36.317Z,3.70
2023-08-31T10:16:06.287Z,3.08
2023-08-31T10:18:38.949Z,2.80
2023-08-31T10:21:06.449Z,2.88
2023-08-31T10:23:33.742Z,3.80
2023-08-31T10:26:01.938Z,3.20
2023-08-31T10:28:30.341Z,3.25
2023-08-31T10:31:08.521Z,3.33
2023-08-31T10:33:36.089Z,3.17
2023-08-31T10:36:03.164Z,3.10
2023-08-31T10:38:36.575Z,3.33
2023-08-31T10:41:09.684Z,2.92
2023-08-31T10:43:59.164Z,3.08
2023-08-31T10:46:33.522Z,2.72
2023-08-31T10:49:18.616Z,2.60
2023-08-31T10:51:57.138Z,2.35
2023-08-31T10:54:26.989Z,2.08
2023-08-31T10:57:09.526Z,2.15
2023-08-31T10:59:53.574Z,1.85
2023-08-31T11:02:43.278Z,2.00
2023-08-31T11:05:18.823Z,2.38
2023-08-31T11:07:51.492Z,2.03
2023-08-31T11:10:20.964Z,2.05
2023-08-31T11:12:50.104Z,2.13
2023-08-31T11:15:19.498Z,2.40
2023-08-31T11:17:47.633Z,2.35
2023-08-31T11:20:18.232Z,2.05
2023-08-31T11:22:47.858Z,2.10
2023-08-31T11:25:19.247Z,2.17
2023-08-31T11:28:01.224Z,2.20
2023-08-31T11:30:29.777Z,1.50
2023-08-31T11:33:03.658Z,1.67
2023-08-31T11:35:37.309Z,1.55
2023-08-31T11:38:05.463Z,1.67
2023-08-31T11:40:32.436Z,1.60
2023-08-31T11:43:01.582Z,1.58
2023-08-31T11:45:29.308Z,1.70
2023-08-31T11:47:57.022Z,1.77
2023-08-31T11:50:25.652Z,1.40
2023-08-31T11:52:54.590Z,1.70
2023-08-31T11:55:24.267Z,1.75
2023-08-31T11:57:55.970Z,2.30
2023-08-31T12:00:24.077Z,1.95
2023-08-31T12:02:58.437Z,2.17
2023-08-31T12:05:26.403Z,2.17
2023-08-31T12:07:58.006Z,2.20
2023-08-31T12:10:28.501Z,1.80
2023-08-31T12:13:08.589Z,1.90
2023-08-31T12:15:35.969Z,1.83
2023-08-31T12:18:14.108Z,1.90
2023-08-31T12:21:07.554Z,2.03
2023-08-31T12:23:34.772Z,1.70
2023-08-31T12:26:02.454Z,1.90
2023-08-31T12:28:29.456Z,2.00
2023-08-31T12:30:58.781Z,1.63
2023-08-31T12:33:26.162Z,1.58
2023-08-31T12:35:53.203Z,1.50
2023-08-31T12:38:21.193Z,1.75
2023-08-31T12:40:48.268Z,1.88
2023-08-31T12:43:15.567Z,1.60
2023-08-31T12:45:42.874Z,2.08
2023-08-31T12:48:09.987Z,1.60
2023-08-31T12:50:37.017Z,1.73
2023-08-31T12:53:04.557Z,1.63
2023-08-31T12:55:31.932Z,1.60
2023-08-31T12:57:59.107Z,1.80
2023-08-31T13:00:26.544Z,1.67
2023-08-31T13:02:53.569Z,1.58
2023-08-31T13:05:21.786Z,1.75
2023-08-31T13:07:48.855Z,1.20
2023-08-31T13:10:16.113Z,1.38
2023-08-31T13:12:43.075Z,1.55
2023-08-31T13:15:10.659Z,1.25
2023-08-31T13:17:38.852Z,1.63
2023-08-31T13:20:06.511Z,1.58
2023-08-31T13:22:33.456Z,1.60
2023-08-31T13:25:03.162Z,1.30
2023-08-31T13:27:31.848Z,1.40
2023-08-31T13:29:58.874Z,1.30
2023-08-31T13:32:26.734Z,1.70
2023-08-31T13:34:56.554Z,1.63
2023-08-31T13:37:24.600Z,1.63
2023-08-31T13:39:54.936Z,1.80
2023-08-31T13:42:22.461Z,1.60
2023-08-31T13:44:49.393Z,1.60
2023-08-31T13:47:16.360Z,1.30
2023-08-31T13:49:46.395Z,1.40
2023-08-31T13:52:13.623Z,1.67
2023-08-31T13:54:40.544Z,1.52
2023-08-31T13:57:09.018Z,1.67
2023-08-31T13:59:37.635Z,1.67
2023-08-31T14:02:05.393Z,1.88
2023-08-31T14:04:32.266Z,1.80
2023-08-31T14:06:59.309Z,1.90
2023-08-31T14:09:26.312Z,1.98
2023-08-31T14:11:53.415Z,1.95
2023-08-31T14:14:20.445Z,1.70
2023-08-31T14:16:48.538Z,2.03
2023-08-31T14:19:15.525Z,1.83
2023-08-31T14:21:42.505Z,1.73
2023-08-31T14:24:09.577Z,1.80
2023-08-31T14:26:37.409Z,1.48
2023-08-31T14:29:04.968Z,1.60
2023-08-31T14:31:32.043Z,2.03
2023-08-31T14:33:59.119Z,2.00
2023-08-31T14:36:27.250Z,1.73
2023-08-31T14:38:54.174Z,1.83
2023-08-31T14:41:21.152Z,1.88
2023-08-31T14:43:49.419Z,2.17
2023-08-31T14:46:16.472Z,1.83
2023-08-31T14:48:43.457Z,1.85
2023-08-31T14:51:11.223Z,1.83
2023-08-31T14:53:38.204Z,1.95
2023-08-31T14:56:05.243Z,2.03
2023-08-31T14:58:32.251Z,1.73
2023-08-31T15:00:59.196Z,2.00
2023-08-31T15:03:26.745Z,1.92
2023-08-31T15:05:53.777Z,1.60
2023-08-31T15:08:36.203Z,1.77
2023-08-31T15:11:07.188Z,2.13
2023-08-31T15:13:34.127Z,1.95
2023-08-31T15:16:01.224Z,2.00
2023-08-31T15:18:30.020Z,1.92
2023-08-31T15:20:57.077Z,2.05
2023-08-31T15:23:24.556Z,2.20
2023-08-31T15:25:51.492Z,2.00
2023-08-31T15:28:18.457Z,2.08
2023-08-31T15:30:45.422Z,1.98
2023-08-31T15:33:14.750Z,2.20
2023-08-31T15:35:43.447Z,2.17
2023-08-31T15:38:11.174Z,2.40
2023-08-31T15:40:38.429Z,2.28
2023-08-31T15:43:05.587Z,2.08
2023-08-31T15:45:32.740Z,2.53
2023-08-31T15:47:59.693Z,2.00
2023-08-31T15:50:26.680Z,2.15
2023-08-31T15:52:54.527Z,1.83
2023-08-31T15:55:21.421Z,1.98
2023-08-31T15:57:48.495Z,2.38
2023-08-31T16:00:15.640Z,1.65
2023-08-31T16:02:42.677Z,1.80
2023-08-31T16:05:11.240Z,2.03
2023-08-31T16:07:39.591Z,2.38
2023-08-31T16:10:07.352Z,2.13
2023-08-31T16:12:35.422Z,2.05
2023-08-31T16:15:02.478Z,2.42
2023-08-31T16:17:29.395Z,2.33
2023-08-31T16:19:57.086Z,2.58
2023-08-31T16:22:24.471Z,1.55
2023-08-31T16:24:51.527Z,1.80
2023-08-31T16:27:18.462Z,2.40
2023-08-31T16:29:49.434Z,2.70
2023-08-31T16:32:20.198Z,2.08
2023-08-31T16:34:47.229Z,1.67
2023-08-31T16:37:14.175Z,2.03
2023-08-31T16:39:41.187Z,2.17
2023-08-31T16:42:09.561Z,2.50
2023-08-31T16:44:36.553Z,2.08
2023-08-31T16:47:05.084Z,2.38
2023-08-31T16:49:32.309Z,1.70
2023-08-31T16:51:59.287Z,2.00
2023-08-31T16:54:27.045Z,1.58
2023-08-31T16:56:56.518Z,1.95
2023-08-31T16:59:24.381Z,1.95
2023-08-31T17:01:53.503Z,1.60
2023-08-31T17:04:20.491Z,1.83
2023-08-31T17:06:49.095Z,2.10
2023-08-31T17:09:16.003Z,2.00
2023-08-31T17:11:43.036Z,1.75
2023-08-31T17:14:11.025Z,1.88
2023-08-31T17:16:38.068Z,1.98
2023-08-31T17:19:04.994Z,1.98
2023-08-31T17:21:31.919Z,1.60
2023-08-31T17:23:58.883Z,2.05
2023-08-31T17:26:26.860Z,1.75
2023-08-31T17:28:53.823Z,1.50
2023-08-31T17:31:20.956Z,1.98
2023-08-31T17:33:51.218Z,2.83
2023-08-31T17:36:21.026Z,2.30
2023-08-31T17:38:48.002Z,3.40
2023-08-31T17:41:14.994Z,2.20
2023-08-31T17:43:45.897Z,3.05
2023-08-31T17:46:12.912Z,2.83
2023-08-31T17:48:41.201Z,2.67
2023-08-31T17:51:09.069Z,2.47
2023-08-31T17:53:37.446Z,3.22
2023-08-31T17:56:04.533Z,2.83
2023-08-31T17:58:31.555Z,3.90
2023-08-31T18:00:58.538Z,3.10
2023-08-31T18:03:25.978Z,3.30
2023-08-31T18:05:53.470Z,3.38
2023-08-31T18:08:29.355Z,2.85
2023-08-31T18:10:56.497Z,3.05
2023-08-31T18:13:23.431Z,2.88
2023-08-31T18:15:54.013Z,2.75
2023-08-31T18:18:21.540Z,2.75
2023-08-31T18:20:48.728Z,2.80
2023-08-31T18:23:41.874Z,3.10
2023-08-31T18:26:08.904Z,2.88
2023-08-31T18:28:35.931Z,2.75
2023-08-31T18:31:04.227Z,2.53
2023-08-31T18:33:32.635Z,2.67
2023-08-31T18:36:02.692Z,2.95
2023-08-31T18:38:30.758Z,3.75
2023-08-31T18:40:58.177Z,2.78
2023-08-31T18:43:28.530Z,2.70
2023-08-31T18:45:58.178Z,2.92
2023-08-31T18:48:25.351Z,2.63
2023-08-31T18:50:59.976Z,3.33
2023-08-31T18:53:28.372Z,2.60
2023-08-31T18:56:05.934Z,3.15
2023-08-31T18:58:33.557Z,2.65
2023-08-31T19:01:04.384Z,7.55
2023-08-31T19:03:31.713Z,13.27
2023-08-31T19:05:59.294Z,10.38
2023-08-31T19:08:26.541Z,5.70
2023-08-31T19:10:53.562Z,3.30
2023-08-31T19:13:20.961Z,3.15
2023-08-31T19:15:49.361Z,7.05
2023-08-31T19:18:16.956Z,13.52
2023-08-31T19:20:44.490Z,4.82
2023-08-31T19:23:11.501Z,2.92
2023-08-31T19:25:38.493Z,3.10
2023-08-31T19:28:07.100Z,3.13
2023-08-31T19:30:35.051Z,3.13
2023-08-31T19:33:03.100Z,3.20
2023-08-31T19:35:57.042Z,9.10
2023-08-31T19:38:18.867Z,9.23
2023-08-31T19:40:48.823Z,7.68
2023-08-31T19:43:18.971Z,5.45
2023-08-31T19:45:47.168Z,8.95
2023-08-31T19:48:15.644Z,13.45
2023-08-31T19:50:43.276Z,8.55
2023-08-31T19:53:10.633Z,7.55
2023-08-31T19:55:38.890Z,7.70
2023-08-31T19:58:06.921Z,7.32
2023-08-31T20:00:33.954Z,7.70
2023-08-31T20:03:01.076Z,6.25
2023-08-31T20:05:28.631Z,5.65
2023-08-31T20:07:56.270Z,6.25
2023-08-31T20:10:23.662Z,4.63
2023-08-31T20:12:51.548Z,5.43
2023-08-31T20:15:18.865Z,3.33
2023-08-31T20:17:45.879Z,2.72
2023-08-31T20:20:15.438Z,3.15
2023-08-31T20:22:42.628Z,2.83
2023-08-31T20:25:10.657Z,2.75
2023-08-31T20:27:38.912Z,2.70
2023-08-31T20:30:07.903Z,2.80
2023-08-31T20:32:35.529Z,2.58
2023-08-31T20:35:02.889Z,2.40
2023-08-31T20:37:33.199Z,2.15
2023-08-31T20:40:00.234Z,2.67
2023-08-31T20:42:27.343Z,2.83
2023-08-31T20:44:55.596Z,3.38
2023-08-31T20:47:22.612Z,2.83
2023-08-31T20:49:49.679Z,3.05
2023-08-31T20:52:18.698Z,3.05
2023-08-31T20:54:49.274Z,3.08
2023-08-31T20:57:16.271Z,2.63
2023-08-31T20:59:43.372Z,2.78
2023-08-31T21:02:10.797Z,3.10
2023-08-31T21:04:37.833Z,3.00
2023-08-31T21:07:05.282Z,3.13
2023-08-31T21:09:35.174Z,2.83
2023-08-31T21:12:03.660Z,3.00
2023-08-31T21:14:30.596Z,2.70
2023-08-31T21:16:57.700Z,2.58
2023-08-31T21:19:26.012Z,3.60
2023-08-31T21:21:53.207Z,3.22
2023-08-31T21:24:20.156Z,2.95
2023-08-31T21:26:47.054Z,2.45
2023-08-31T21:29:13.984Z,2.72
2023-08-31T21:31:40.907Z,2.63
2023-08-31T21:34:07.870Z,3.15
2023-08-31T21:36:34.875Z,2.50
2023-08-31T21:39:01.848Z,2.30
2023-08-31T21:41:28.938Z,2.10
2023-08-31T21:43:56.179Z,2.30
2023-08-31T21:46:23.429Z,2.50
2023-08-31T21:48:50.873Z,2.35
2023-08-31T21:51:17.797Z,1.98
2023-08-31T21:53:44.818Z,2.20
2023-08-31T21:56:12.561Z,2.42
2023-08-31T21:58:39.578Z,1.88
2023-08-31T22:01:06.792Z,2.13
2023-08-31T22:03:34.467Z,2.17
2023-08-31T22:06:08.888Z,1.63
2023-08-31T22:08:37.673Z,2.05
2023-08-31T22:11:07.316Z,2.25
2023-08-31T22:13:35.824Z,2.17
2023-08-31T22:16:12.246Z,2.17
2023-08-31T22:18:50.386Z,2.30
2023-08-31T22:21:18.351Z,2.35
2023-08-31T22:23:45.425Z,1.70
2023-08-31T22:26:12.469Z,2.28
2023-08-31T22:28:39.481Z,2.17
2023-08-31T22:31:06.607Z,2.25
2023-08-31T22:33:33.570Z,1.90
2023-08-31T22:36:05.237Z,1.73
2023-08-31T22:38:32.561Z,2.15
2023-08-31T22:40:59.555Z,2.40
2023-08-31T22:43:27.017Z,2.40
2023-08-31T22:46:00.731Z,2.28
2023-08-31T22:48:29.333Z,2.63
2023-08-31T22:51:06.878Z,3.25
2023-08-31T22:53:34.949Z,3.28
2023-08-31T22:56:04.590Z,2.65
2023-08-31T22:58:31.860Z,2.70
2023-08-31T23:00:59.723Z,3.22
2023-08-31T23:03:26.950Z,2.97
2023-08-31T23:05:54.012Z,3.58
2023-08-31T23:08:21.607Z,2.67
2023-08-31T23:10:49.211Z,3.30
2023-08-31T23:13:16.232Z,2.80
2023-08-31T23:15:44.830Z,2.72
2023-08-31T23:18:12.713Z,3.20
2023-08-31T23:20:40.362Z,3.30
2023-08-31T23:23:07.631Z,2.75
2023-08-31T23:25:34.759Z,3.13
2023-08-31T23:28:01.913Z,2.97
2023-08-31T23:30:29.071Z,3.28
2023-08-31T23:32:58.305Z,3.20
2023-08-31T23:35:25.354Z,2.78
2023-08-31T23:37:52.940Z,2.85
2023-08-31T23:40:19.982Z,2.78
2023-08-31T23:42:47.252Z,2.97
2023-08-31T23:45:14.467Z,3.30
2023-08-31T23:47:41.486Z,3.40
2023-08-31T23:50:09.066Z,2.92
2023-08-31T23:52:36.232Z,3.17
2023-08-31T23:55:03.547Z,2.92
2023-08-31T23:57:30.545Z,3.25
2023-08-31T23:59:58.323Z,3.50
